EST,Max TemperatureF,Mean TemperatureF,Min TemperatureF,Max Dew PointF,MeanDew PointF,Min DewpointF,Max Humidity, Mean Humidity, Min Humidity, Max Sea Level PressureIn, Mean Sea Level PressureIn, Min Sea Level PressureIn, Max VisibilityMiles, Mean VisibilityMiles, Min VisibilityMiles, Max Wind SpeedMPH, Mean Wind SpeedMPH, Max Gust SpeedMPH,PrecipitationIn, CloudCover, Events, WindDirDegrees
2013-2-1,20,13,5,18,5,-2,91,76,61,30.48,30.34,30.04,10,10,3,29,10,36,T,2,Snow,255
2013-2-2,32,24,15,30,22,11,100,87,73,30.35,30.16,30.01,10,5,0,17,9,23,0.15,8,Fog-Snow,214
2013-2-3,29,25,20,25,22,17,85,77,68,30.18,30.05,29.95,10,9,2,20,8,28,T,7,Snow,272
2013-2-4,45,29,13,40,26,12,93,76,59,30.16,29.99,29.87,10,10,8,20,9,25,0.09,6,Rain,205
2013-2-5,49,43,37,40,37,32,100,78,56,30.05,29.92,29.87,10,8,2,16,9,22,0.00,7,,255
2013-2-6,47,36,24,33,30,25,100,80,60,30.25,30.19,30.06,10,8,3,12,4,15,0.00,3,,32
2013-2-7,63,50,36,38,33,29,82,59,36,30.18,30.04,29.88,10,10,10,17,8,21,0.00,2,,154
2013-2-8,48,40,32,46,34,28,100,86,71,30.33,30.08,29.84,10,10,4,22,11,26,0.12,8,Rain,297
2013-2-9,43,34,24,28,22,19,85,62,39,30.43,30.34,30.22,10,10,10,12,7,15,0.00,2,,68
2013-2-10,58,47,35,49,32,19,93,63,32,30.20,30.04,29.85,10,10,5,29,13,37,0.14,5,Rain,160
2013-2-11,54,46,38,52,37,25,96,69,41,30.11,29.96,29.85,10,10,10,28,15,35,T,2,,238
2013-2-12,49,39,29,28,26,23,78,59,39,30.18,30.08,29.91,10,10,10,10,4,14,0.00,0,,225
2013-2-13,38,34,29,34,31,28,100,85,70,29.97,29.83,29.77,10,7,1,17,6,22,0.04,7,Snow,324
2013-2-14,54,42,29,38,32,28,100,73,46,30.00,29.96,29.89,10,8,5,24,11,29,0.00,3,,211
2013-2-15,42,34,26,34,29,20,92,77,61,30.17,30.09,30.01,10,10,9,20,6,26,0.01,6,Rain,303
2013-2-16,34,27,19,23,16,8,100,72,43,30.16,30.11,30.06,10,8,3,18,7,25,T,4,Snow,297
2013-2-17,36,26,16,14,11,5,80,55,29,30.28,30.22,30.14,10,10,10,16,5,21,0.00,3,,315
2013-2-18,60,43,25,36,24,13,62,49,35,30.23,30.06,29.82,10,10,10,35,16,48,T,2,Rain,171
2013-2-19,47,36,24,41,29,16,92,70,47,30.17,29.92,29.75,10,9,5,33,18,46,0.14,6,Rain,254
2013-2-20,32,25,17,16,13,10,74,62,49,30.30,30.25,30.16,10,10,10,15,8,32,0.00,2,,296
2013-2-21,37,27,16,28,19,12,85,66,47,30.35,30.21,30.02,10,9,5,25,11,32,0.24,3,Rain,62
2013-2-22,59,45,31,46,37,28,100,83,66,30.03,29.95,29.88,10,8,4,26,9,36,0.19,6,Rain,158
2013-2-23,47,39,31,38,30,23,92,67,42,30.02,29.97,29.91,10,10,8,10,5,15,0.00,4,,285
2013-2-24,46,35,24,26,23,21,88,65,42,30.15,30.09,29.98,10,10,9,10,4,16,0.00,0,,325
2013-2-25,49,37,25,24,22,21,81,59,36,30.14,30.04,29.84,10,10,10,21,13,28,0.00,1,,74
2013-2-26,54,46,38,50,40,23,96,73,50,29.79,29.52,29.39,10,9,2,33,13,46,0.38,8,Rain,194
2013-2-27,39,36,32,36,33,30,96,91,85,29.81,29.73,29.59,10,8,2,25,15,35,0.01,8,Rain-Snow,231
2013-2-28,34,33,31,34,30,28,100,93,85,29.99,29.86,29.76,10,8,3,18,12,25,0.01,8,Snow,256